KCOF/COF METAR and TAF weather

Enter ICAO airport designator
Station Type Date Time Source
KCOF METAR 2020/09/18 18:56 UTC NOAA

KCOF 181856Z AUTO 24009KT 10SM FEW065 30/23 A2984 RMK AO2 SLP109 T02970231 $


Station Type Date Time Source
KCOF Decoded METAR 2020/09/18 18:56 UTC NOAA

Cocoa / Patrick Air Force Base, FL, United States (KCOF) 28-14N 080-36W 3M
Sep 18, 2020 - 02:56 PM EDT / 2020.09.18 1856 UTC
Wind: from the WSW (240 degrees) at 10 MPH (9 KT):0
Visibility: 10 mile(s):0
Sky conditions: mostly clear
Temperature: 85.5 F (29.7 C)
Heat index: 92.7 F (33.7 C):1
Dew Point: 73.6 F (23.1 C)
Relative Humidity: 67%
Pressure (altimeter): 29.84 in. Hg (1010 hPa)
ob: KCOF 181856Z AUTO 24009KT 10SM FEW065 30/23 A2984 RMK AO2 SLP109 T02970231
cycle: 19

Station Type Date Time Source
KCOF TAF 2020/09/18 16:18 UTC NOAA

TAF TAF
AMD KCOF 181615Z 1816/1916 23012KT 9999 VCSH SCT025 BKN050 QNH2982INS

Example: see airport list